sensor_id;sensor_type;location;lat;lon;timestamp;temperature;humidity
63407;SHT31;49543;45.892;10.838;2023-02-14T08:53:51;11.25;59.85
63407;SHT31;49543;45.892;10.838;2023-02-14T08:56:17;11.35;59.76
63407;SHT31;49543;45.892;10.838;2023-02-14T08:58:44;11.50;60.10
63407;SHT31;49543;45.892;10.838;2023-02-14T09:50:10;13.99;54.50
63407;SHT31;49543;45.892;10.838;2023-02-14T09:52:37;14.06;52.90
63407;SHT31;49543;45.892;10.838;2023-02-14T09:55:03;14.24;53.45
63407;SHT31;49543;45.892;10.838;2023-02-14T09:57:40;14.41;53.44
63407;SHT31;49543;45.892;10.838;2023-02-14T10:05:21;15.02;52.74
63407;SHT31;49543;45.892;10.838;2023-02-14T10:12:46;15.42;51.10
63407;SHT31;49543;45.892;10.838;2023-02-14T10:15:18;15.57;51.49
63407;SHT31;49543;45.892;10.838;2023-02-14T10:17:48;15.71;50.23
63407;SHT31;49543;45.892;10.838;2023-02-14T10:22:45;15.99;48.53
63407;SHT31;49543;45.892;10.838;2023-02-14T10:25:25;16.26;49.16
63407;SHT31;49543;45.892;10.838;2023-02-14T10:27:52;16.53;48.57
63407;SHT31;49543;45.892;10.838;2023-02-14T10:30:20;16.67;47.46
63407;SHT31;49543;45.892;10.838;2023-02-14T10:32:48;16.77;47.21
63407;SHT31;49543;45.892;10.838;2023-02-14T10:35:30;16.96;47.66
63407;SHT31;49543;45.892;10.838;2023-02-14T10:40:44;17.47;47.33
63407;SHT31;49543;45.892;10.838;2023-02-14T10:43:22;17.65;45.31
63407;SHT31;49543;45.892;10.838;2023-02-14T10:51:00;18.26;44.88
63407;SHT31;49543;45.892;10.838;2023-02-14T10:55:52;18.18;43.03
63407;SHT31;49543;45.892;10.838;2023-02-14T10:58:21;18.22;43.37
63407;SHT31;49543;45.892;10.838;2023-02-14T11:00:50;18.42;43.85
63407;SHT31;49543;45.892;10.838;2023-02-14T11:03:17;18.64;43.67
63407;SHT31;49543;45.892;10.838;2023-02-14T11:05:46;18.88;43.59
63407;SHT31;49543;45.892;10.838;2023-02-14T11:10:43;19.49;43.91
63407;SHT31;49543;45.892;10.838;2023-02-14T11:13:28;19.77;42.81
63407;SHT31;49543;45.892;10.838;2023-02-14T11:15:57;19.83;41.80
63407;SHT31;49543;45.892;10.838;2023-02-14T11:18:23;19.87;41.67
63407;SHT31;49543;45.892;10.838;2023-02-14T11:23:48;19.86;41.67
63407;SHT31;49543;45.892;10.838;2023-02-14T11:26:30;19.98;42.24
63407;SHT31;49543;45.892;10.838;2023-02-14T11:31:34;20.04;42.17
63407;SHT31;49543;45.892;10.838;2023-02-14T11:34:01;20.13;41.58
63407;SHT31;49543;45.892;10.838;2023-02-14T11:36:28;20.21;40.58
63407;SHT31;49543;45.892;10.838;2023-02-14T11:39:16;20.39;41.14
63407;SHT31;49543;45.892;10.838;2023-02-14T11:44:34;20.58;40.54
63407;SHT31;49543;45.892;10.838;2023-02-14T11:47:18;20.48;39.84
63407;SHT31;49543;45.892;10.838;2023-02-14T11:49:56;20.45;40.13
63407;SHT31;49543;45.892;10.838;2023-02-14T11:52:22;20.56;40.10
63407;SHT31;49543;45.892;10.838;2023-02-14T11:54:54;20.59;39.85
63407;SHT31;49543;45.892;10.838;2023-02-14T11:57:31;20.56;39.47
63407;SHT31;49543;45.892;10.838;2023-02-14T11:59:58;20.76;39.96
63407;SHT31;49543;45.892;10.838;2023-02-14T12:02:31;20.93;40.81
63407;SHT31;49543;45.892;10.838;2023-02-14T12:05:02;21.08;40.46
63407;SHT31;49543;45.892;10.838;2023-02-14T12:12:30;21.15;39.62
63407;SHT31;49543;45.892;10.838;2023-02-14T12:18:10;21.35;38.96
63407;SHT31;49543;45.892;10.838;2023-02-14T12:20:43;21.28;38.29
63407;SHT31;49543;45.892;10.838;2023-02-14T12:23:13;21.19;38.59
63407;SHT31;49543;45.892;10.838;2023-02-14T12:25:47;21.20;39.11
63407;SHT31;49543;45.892;10.838;2023-02-14T12:28:15;21.30;39.19
63407;SHT31;49543;45.892;10.838;2023-02-14T12:30:43;21.27;39.09
63407;SHT31;49543;45.892;10.838;2023-02-14T12:33:14;21.31;39.00
63407;SHT31;49543;45.892;10.838;2023-02-14T12:36:03;21.34;39.27
63407;SHT31;49543;45.892;10.838;2023-02-14T17:42:07;11.42;60.49
63407;SHT31;49543;45.892;10.838;2023-02-14T17:44:32;11.44;60.92
63407;SHT31;49543;45.892;10.838;2023-02-14T17:47:00;11.38;60.59
63407;SHT31;49543;45.892;10.838;2023-02-14T17:49:25;11.38;60.57
63407;SHT31;49543;45.892;10.838;2023-02-14T17:51:51;11.32;60.82
63407;SHT31;49543;45.892;10.838;2023-02-14T17:54:16;11.32;60.98
63407;SHT31;49543;45.892;10.838;2023-02-14T17:56:41;11.38;60.30
63407;SHT31;49543;45.892;10.838;2023-02-14T17:59:07;11.35;59.80
63407;SHT31;49543;45.892;10.838;2023-02-14T18:01:32;11.34;60.25
63407;SHT31;49543;45.892;10.838;2023-02-14T18:03:58;11.30;60.17
63407;SHT31;49543;45.892;10.838;2023-02-14T18:06:24;11.24;60.32
63407;SHT31;49543;45.892;10.838;2023-02-14T18:08:50;11.24;60.71
63407;SHT31;49543;45.892;10.838;2023-02-14T18:11:18;11.21;60.65
63407;SHT31;49543;45.892;10.838;2023-02-14T18:13:44;11.13;60.56
63407;SHT31;49543;45.892;10.838;2023-02-14T18:16:10;11.14;60.71
63407;SHT31;49543;45.892;10.838;2023-02-14T18:18:36;11.17;60.69
63407;SHT31;49543;45.892;10.838;2023-02-14T18:21:02;11.11;60.35
63407;SHT31;49543;45.892;10.838;2023-02-14T18:23:28;11.11;60.71
63407;SHT31;49543;45.892;10.838;2023-02-14T18:25:55;11.10;60.84
63407;SHT31;49543;45.892;10.838;2023-02-14T18:28:21;11.06;60.38
63407;SHT31;49543;45.892;10.838;2023-02-14T18:30:47;11.06;60.14
63407;SHT31;49543;45.892;10.838;2023-02-14T18:33:13;11.00;60.51
63407;SHT31;49543;45.892;10.838;2023-02-14T18:35:39;11.00;60.45
63407;SHT31;49543;45.892;10.838;2023-02-14T18:38:05;10.96;60.47
63407;SHT31;49543;45.892;10.838;2023-02-14T18:40:36;10.90;60.81
63407;SHT31;49543;45.892;10.838;2023-02-14T18:43:02;10.90;60.83
63407;SHT31;49543;45.892;10.838;2023-02-14T18:45:28;10.90;60.54
63407;SHT31;49543;45.892;10.838;2023-02-14T18:47:53;10.92;60.20
63407;SHT31;49543;45.892;10.838;2023-02-14T18:50:19;10.86;60.82
63407;SHT31;49543;45.892;10.838;2023-02-14T18:52:44;10.86;61.34
63407;SHT31;49543;45.892;10.838;2023-02-14T18:55:10;10.87;61.50
63407;SHT31;49543;45.892;10.838;2023-02-14T18:57:37;10.83;61.74
63407;SHT31;49543;45.892;10.838;2023-02-14T19:00:05;10.80;62.08
63407;SHT31;49543;45.892;10.838;2023-02-14T19:02:36;10.77;61.84
63407;SHT31;49543;45.892;10.838;2023-02-14T19:05:02;10.77;61.79
63407;SHT31;49543;45.892;10.838;2023-02-14T19:07:28;10.73;62.12
63407;SHT31;49543;45.892;10.838;2023-02-14T19:09:54;10.73;62.06
63407;SHT31;49543;45.892;10.838;2023-02-14T19:12:20;10.79;62.04
63407;SHT31;49543;45.892;10.838;2023-02-14T19:14:46;10.77;61.97
63407;SHT31;49543;45.892;10.838;2023-02-14T19:17:11;10.73;61.87
63407;SHT31;49543;45.892;10.838;2023-02-14T19:19:37;10.68;61.63
63407;SHT31;49543;45.892;10.838;2023-02-14T19:22:03;10.68;61.70
63407;SHT31;49543;45.892;10.838;2023-02-14T19:24:28;10.63;62.16
63407;SHT31;49543;45.892;10.838;2023-02-14T19:26:54;10.63;62.15
63407;SHT31;49543;45.892;10.838;2023-02-14T19:29:21;10.58;62.40
63407;SHT31;49543;45.892;10.838;2023-02-14T19:31:49;10.58;62.46
63407;SHT31;49543;45.892;10.838;2023-02-14T19:36:43;10.55;62.47
63407;SHT31;49543;45.892;10.838;2023-02-14T19:39:09;10.59;62.68
63407;SHT31;49543;45.892;10.838;2023-02-14T19:41:38;10.60;61.50
63407;SHT31;49543;45.892;10.838;2023-02-14T19:44:05;10.58;62.08
63407;SHT31;49543;45.892;10.838;2023-02-14T19:46:32;10.59;62.12
63407;SHT31;49543;45.892;10.838;2023-02-14T19:49:05;10.56;61.93
63407;SHT31;49543;45.892;10.838;2023-02-14T19:51:32;10.55;62.07
63407;SHT31;49543;45.892;10.838;2023-02-14T19:54:01;10.53;62.24
63407;SHT31;49543;45.892;10.838;2023-02-14T19:56:36;10.56;62.48
63407;SHT31;49543;45.892;10.838;2023-02-14T19:59:02;10.53;62.38
63407;SHT31;49543;45.892;10.838;2023-02-14T20:04:18;10.53;61.18
63407;SHT31;49543;45.892;10.838;2023-02-14T20:06:44;10.53;61.44
63407;SHT31;49543;45.892;10.838;2023-02-14T20:09:13;10.51;61.82
63407;SHT31;49543;45.892;10.838;2023-02-14T20:11:47;10.51;61.82
63407;SHT31;49543;45.892;10.838;2023-02-14T20:14:30;10.46;62.08
63407;SHT31;49543;45.892;10.838;2023-02-14T20:17:00;10.44;61.76
63407;SHT31;49543;45.892;10.838;2023-02-14T20:19:34;10.39;61.75
63407;SHT31;49543;45.892;10.838;2023-02-14T20:22:00;10.41;61.58
63407;SHT31;49543;45.892;10.838;2023-02-14T20:24:33;10.32;61.29
63407;SHT31;49543;45.892;10.838;2023-02-14T20:26:58;10.27;61.68
63407;SHT31;49543;45.892;10.838;2023-02-14T20:29:25;10.27;62.02
63407;SHT31;49543;45.892;10.838;2023-02-14T20:31:55;10.30;61.64
63407;SHT31;49543;45.892;10.838;2023-02-14T20:34:23;10.22;61.58
63407;SHT31;49543;45.892;10.838;2023-02-14T20:36:49;10.18;61.84
63407;SHT31;49543;45.892;10.838;2023-02-14T20:39:25;10.20;61.57
63407;SHT31;49543;45.892;10.838;2023-02-14T20:41:51;10.21;62.10
63407;SHT31;49543;45.892;10.838;2023-02-14T20:44:21;10.24;61.04
63407;SHT31;49543;45.892;10.838;2023-02-14T20:46:52;10.25;61.09
63407;SHT31;49543;45.892;10.838;2023-02-14T20:49:19;10.28;61.61
63407;SHT31;49543;45.892;10.838;2023-02-14T20:51:46;10.34;61.38
63407;SHT31;49543;45.892;10.838;2023-02-14T20:54:14;10.30;61.27
63407;SHT31;49543;45.892;10.838;2023-02-14T20:56:45;10.27;61.38
63407;SHT31;49543;45.892;10.838;2023-02-14T20:59:11;10.28;60.41
63407;SHT31;49543;45.892;10.838;2023-02-14T21:01:37;10.31;59.73
63407;SHT31;49543;45.892;10.838;2023-02-14T21:04:05;10.30;60.33
63407;SHT31;49543;45.892;10.838;2023-02-14T21:06:32;10.31;60.75
63407;SHT31;49543;45.892;10.838;2023-02-14T21:09:00;10.30;61.23
63407;SHT31;49543;45.892;10.838;2023-02-14T21:11:27;10.31;61.51
63407;SHT31;49543;45.892;10.838;2023-02-14T21:14:03;10.32;60.49
63407;SHT31;49543;45.892;10.838;2023-02-14T21:16:29;10.27;60.76
63407;SHT31;49543;45.892;10.838;2023-02-14T21:18:58;10.27;60.51
63407;SHT31;49543;45.892;10.838;2023-02-14T21:23:57;10.15;61.34
63407;SHT31;49543;45.892;10.838;2023-02-14T21:26:26;10.13;60.38
63407;SHT31;49543;45.892;10.838;2023-02-14T21:28:53;10.07;61.14
63407;SHT31;49543;45.892;10.838;2023-02-14T21:31:22;10.07;61.62
63407;SHT31;49543;45.892;10.838;2023-02-14T21:33:56;10.05;61.80
63407;SHT31;49543;45.892;10.838;2023-02-14T21:36:24;10.03;61.86
63407;SHT31;49543;45.892;10.838;2023-02-14T21:38:50;9.98;61.90
63407;SHT31;49543;45.892;10.838;2023-02-14T21:41:24;9.93;61.69
63407;SHT31;49543;45.892;10.838;2023-02-14T21:43:55;9.91;62.07
63407;SHT31;49543;45.892;10.838;2023-02-14T21:46:23;9.87;61.93
63407;SHT31;49543;45.892;10.838;2023-02-14T21:48:55;9.80;61.65
63407;SHT31;49543;45.892;10.838;2023-02-14T21:51:40;9.73;62.04
63407;SHT31;49543;45.892;10.838;2023-02-14T21:54:06;9.73;62.17
63407;SHT31;49543;45.892;10.838;2023-02-14T21:56:42;9.67;62.01
63407;SHT31;49543;45.892;10.838;2023-02-14T21:59:09;9.67;62.00
63407;SHT31;49543;45.892;10.838;2023-02-14T22:01:37;9.63;61.81
63407;SHT31;49543;45.892;10.838;2023-02-14T22:04:08;9.65;61.95
63407;SHT31;49543;45.892;10.838;2023-02-14T22:06:38;9.65;61.47
63407;SHT31;49543;45.892;10.838;2023-02-14T22:09:04;9.66;61.27
63407;SHT31;49543;45.892;10.838;2023-02-14T22:11:30;9.66;61.87
63407;SHT31;49543;45.892;10.838;2023-02-14T22:13:56;9.70;61.82
63407;SHT31;49543;45.892;10.838;2023-02-14T22:16:22;9.69;61.71
63407;SHT31;49543;45.892;10.838;2023-02-14T22:18:48;9.73;61.83
63407;SHT31;49543;45.892;10.838;2023-02-14T22:21:19;9.62;62.04
